createdAt,value
2023-05-16T10:54:18.322Z,13.18
2023-05-16T10:57:23.470Z,7.80
2023-05-16T11:00:25.090Z,109.55
2023-05-16T11:03:28.731Z,126.80
2023-05-16T11:06:35.822Z,133.30
2023-05-16T11:09:43.474Z,98.95
2023-05-16T11:12:48.562Z,102.53
2023-05-16T11:15:50.436Z,88.20
2023-05-16T11:18:52.000Z,75.13
2023-05-16T11:22:17.896Z,85.20
2023-05-16T11:25:36.146Z,86.82
2023-05-16T11:28:37.771Z,62.97
2023-05-16T11:31:40.619Z,65.65
2023-05-16T11:34:43.269Z,56.97
2023-05-16T11:37:46.836Z,41.38
2023-05-16T11:40:48.360Z,61.03
2023-05-16T11:43:49.848Z,41.35
2023-05-16T11:46:51.463Z,45.47
2023-05-16T11:49:58.135Z,44.10
2023-05-16T11:52:59.855Z,42.60
2023-05-16T11:56:02.207Z,37.88
2023-05-16T11:59:04.498Z,35.20
2023-05-16T12:02:06.464Z,39.83
2023-05-16T12:05:11.344Z,26.60
2023-05-16T12:08:12.961Z,22.88
2023-05-16T12:11:14.986Z,21.92
2023-05-16T12:14:16.608Z,13.93
2023-05-16T12:17:18.437Z,14.20
2023-05-16T12:20:20.014Z,11.60
2023-05-16T12:23:21.580Z,11.63
2023-05-16T12:26:32.013Z,9.80
2023-05-16T12:32:37.715Z,11.50
2023-05-16T12:35:40.887Z,6.28
2023-05-16T12:38:47.366Z,7.88
2023-05-16T12:41:49.211Z,8.93
2023-05-16T12:44:57.043Z,7.40
2023-05-16T12:48:04.832Z,7.10
2023-05-16T12:51:17.828Z,6.32
2023-05-16T12:54:20.533Z,6.65
2023-05-16T12:57:22.099Z,5.65
2023-05-16T13:00:24.009Z,10.52
2023-05-16T13:03:25.765Z,5.15
2023-05-16T13:06:28.449Z,7.22
2023-05-16T13:09:32.986Z,7.50
2023-05-16T13:12:34.749Z,4.65
2023-05-16T13:15:36.554Z,6.70
2023-05-16T13:18:38.388Z,5.45
2023-05-16T13:21:40.070Z,8.43
2023-05-16T13:24:41.876Z,5.75
2023-05-16T13:27:43.932Z,8.60
2023-05-16T13:30:45.409Z,3.83
2023-05-16T13:33:46.893Z,5.88
2023-05-16T13:36:54.248Z,7.80
2023-05-16T13:39:56.199Z,5.10
2023-05-16T15:53:48.201Z,5.78
2023-05-16T15:56:49.765Z,3.05
2023-05-16T15:59:51.449Z,2.30
2023-05-16T16:02:53.672Z,2.60
2023-05-16T16:05:55.482Z,3.33
2023-05-16T16:08:59.364Z,2.25
2023-05-16T16:12:03.098Z,2.58
2023-05-16T16:15:06.698Z,2.25
2023-05-16T16:18:08.537Z,1.10
2023-05-16T16:21:10.895Z,2.13
2023-05-16T16:24:13.510Z,2.28
2023-05-16T16:27:15.169Z,2.45
2023-05-16T16:30:16.677Z,1.23
2023-05-16T16:33:18.366Z,2.25
2023-05-16T16:36:20.048Z,2.47
2023-05-16T16:39:21.560Z,1.80
2023-05-16T16:42:25.251Z,7.88
2023-05-16T16:45:27.027Z,7.20
2023-05-16T16:48:28.844Z,4.78
2023-05-16T16:51:33.627Z,2.67
2023-05-16T16:54:35.129Z,4.47
2023-05-16T16:57:36.947Z,4.25
2023-05-16T17:00:38.723Z,4.07
2023-05-16T17:03:40.464Z,3.35
2023-05-16T17:06:42.145Z,5.75
2023-05-16T17:09:43.735Z,5.50
2023-05-16T17:12:49.452Z,2.55
2023-05-16T17:15:51.010Z,6.00
2023-05-16T17:18:52.566Z,8.70
2023-05-16T17:21:54.239Z,5.65
2023-05-16T17:24:55.721Z,4.28
2023-05-16T17:27:57.396Z,5.65
2023-05-16T17:30:59.212Z,1.95
2023-05-16T17:34:00.702Z,4.60
2023-05-16T17:37:02.817Z,2.35
2023-05-16T17:40:07.714Z,2.03
2023-05-16T17:43:09.236Z,2.33
2023-05-16T17:46:10.844Z,4.15
2023-05-16T17:49:13.210Z,2.53
2023-05-16T17:52:15.525Z,1.50
2023-05-16T17:55:17.024Z,2.47
2023-05-16T17:58:18.594Z,1.50
2023-05-16T18:01:20.095Z,4.13
2023-05-16T18:04:22.534Z,2.30
2023-05-16T18:07:26.409Z,0.95
2023-05-16T18:10:33.801Z,2.88
2023-05-16T18:13:43.507Z,1.90
2023-05-16T18:16:45.173Z,2.55
2023-05-16T18:19:47.273Z,2.83
2023-05-16T18:22:51.168Z,2.95
2023-05-16T18:25:53.935Z,1.45
2023-05-16T18:28:55.700Z,2.05
2023-05-16T18:31:57.815Z,7.40
2023-05-16T18:34:59.326Z,6.53
2023-05-16T18:38:01.210Z,3.55
